Middletown, Ohio
Current Conditions -  °F | °C
As of 4:55 AM on Monday 22 Dec 2014 (Local Time) from KMWO Reporting Station
Overcast Overcast  
Wind Chill: 32°   Ceiling: 4800
Heat Index: 32°   Visibility: 7mi
Dew Point: 27°   Wind: 3mph
Humidity: 83%   Direction: 10°N
Pressure: 30.05"   Gusts: NA
Location:  39.51°N, 84.4°W
Report Text: KMWO 220955Z AUTO 01003KT 7SM OVC048 00/M03 A3005 RMK AO2 T10021027
Loading
Personal Weather Stations






























Interactive Weather Map New forecast layout! Learn more

10-Day Weather Forecast

Advertisements
Track Severe Weather on mobile